Airfield :
LOGIN :

Register | Disclaimer

   EN    FR    IT 

 










Legend :    VFR   Marginal VFR   IFR   Intensive IFR   Very Intensive IFR
Visi :
Ceiling :
>= 8 km
>= 3000ft
5 to 8 km
1000 to 3000 ft
1500m to 5 km
500 to 1000 ft
800 to 1500m
200 to 500 ft
< 800m
< 200 ft
Symbols :   Thunderstorms  Fog  Heavy snow  Heavy precipitations  Wind > 20 kt
SIGMETs :     Misc.  Thunderstorms  Icing  Turbulence  Mountain Waves  Volcanic Ashes






- Airport Elevation : 154 ft
- IATA code : SZZ


EPSC - Szczecin Goleniow

CURRENT METAR :
  • 190630Z 30007KT 8000 -RA BKN003 13/13 Q1012

EXPIRED METARs :
  • 190600Z 31006KT 9999 FEW005 SCT008 BKN010 13/13 Q1012
  • 190530Z 32004KT 9999 -RA SCT005 OVC007 13/12 Q1011
  • 190500Z 34005KT 310V010 9999 BKN005 13/12 Q1011
  • 190430Z 35006KT 330V030 9999 FEW007 BKN023 13/12 Q1010
  • 190400Z 33005KT 300V010 9999 FEW006 BKN010 13/12 Q1011
  • 190330Z 33008KT 9999 BKN007 13/12 Q1010
  • 190300Z 34006KT 9999 FEW008 OVC025 13/12 Q1010
  • 190230Z 36006KT 330V040 9999 BKN005 13/12 Q1010
  • 190200Z 35008KT 9999 OVC019 13/12 Q1010

TAF TAF EPSC
Valid from the 19 at 06:00 until the 20 at 06:00 UTC


190530Z 1906/2006 34010KT 9999 BKN007 BKN012
PROB40
TEMPO 1906/1909 4000 -DZRA BR BKN004
BECMG 1908/1910 BKN025
TEMPO 1910/1916 BKN020TCU
BECMG 1915/1918 28005KT



MET'MAP, your aeronautical weather chart ! - Copyright ORBIFLY December 2007 - Disclaimer

ORBIFLY MET'MAP TEAM :

Programming & Development : Alexandra Zaïnal
Original concept : Baudouin d'Aumeries
Technical & hardware support : Manuel Goepfert
Assistance : Marc-Olivier Méhu




SOURCES & CREDITS :

   NOAA